createdAt,value
2022-11-13T00:00:25.461Z,72.22
2022-11-13T00:01:45.725Z,71.97
2022-11-13T00:03:05.977Z,72.16
2022-11-13T00:04:26.117Z,71.86
2022-11-13T00:05:46.247Z,71.92
2022-11-13T00:07:06.373Z,71.93
2022-11-13T00:08:27.165Z,71.65
2022-11-13T00:09:47.470Z,71.36
2022-11-13T00:11:18.541Z,71.97
2022-11-13T00:12:38.556Z,72.25
2022-11-13T00:13:58.742Z,72.03
2022-11-13T00:15:19.031Z,71.81
2022-11-13T00:16:38.974Z,72.10
2022-11-13T00:18:02.902Z,71.88
2022-11-13T00:19:22.798Z,71.59
2022-11-13T00:20:42.933Z,71.86
2022-11-13T00:22:03.309Z,71.75
2022-11-13T00:23:23.556Z,72.11
2022-11-13T00:24:43.722Z,71.80
2022-11-13T00:26:11.008Z,71.63
2022-11-13T00:27:31.296Z,71.42
2022-11-13T00:28:54.949Z,71.40
2022-11-13T00:30:19.294Z,71.55
2022-11-13T00:31:39.514Z,71.51
2022-11-13T00:32:59.610Z,71.74
2022-11-13T00:34:45.731Z,71.69
2022-11-13T00:36:03.585Z,71.50
2022-11-13T00:37:23.733Z,71.54
2022-11-13T00:38:43.616Z,71.79
2022-11-13T00:40:04.899Z,71.77
2022-11-13T00:41:25.155Z,71.80
2022-11-13T00:42:45.280Z,71.62
2022-11-13T00:44:05.293Z,71.68
2022-11-13T00:45:25.429Z,71.73
2022-11-13T00:46:45.567Z,71.76
2022-11-13T00:48:05.993Z,71.93
2022-11-13T00:49:26.050Z,71.67
2022-11-13T00:50:46.311Z,71.70
2022-11-13T00:52:06.525Z,71.94
2022-11-13T00:53:26.566Z,71.87
2022-11-13T00:54:46.601Z,71.95
2022-11-13T00:56:06.770Z,71.78
2022-11-13T00:57:26.795Z,71.73
2022-11-13T00:58:47.069Z,71.64
2022-11-13T01:00:07.247Z,71.29
2022-11-13T01:01:27.425Z,71.10
2022-11-13T01:02:47.553Z,71.02
2022-11-13T01:04:07.646Z,71.03
2022-11-13T01:05:27.659Z,70.75
2022-11-13T01:06:47.772Z,70.76
2022-11-13T01:08:07.915Z,70.60
2022-11-13T01:09:27.835Z,70.85
2022-11-13T01:10:53.470Z,70.67
2022-11-13T01:12:13.726Z,70.71
2022-11-13T01:13:33.642Z,70.72
2022-11-13T01:14:53.784Z,70.62
2022-11-13T01:16:14.155Z,70.71
2022-11-13T01:17:34.573Z,70.75
2022-11-13T01:18:55.354Z,70.52
2022-11-13T01:20:15.489Z,70.55
2022-11-13T01:21:35.511Z,70.58
2022-11-13T01:22:55.595Z,70.85
2022-11-13T01:24:15.850Z,70.73
2022-11-13T01:25:35.909Z,70.74
2022-11-13T01:26:55.999Z,70.87
2022-11-13T01:28:16.269Z,71.13
2022-11-13T01:29:37.367Z,71.20
2022-11-13T01:30:57.137Z,71.14
2022-11-13T01:32:17.190Z,71.02
2022-11-13T01:33:37.055Z,70.97
2022-11-13T01:34:57.252Z,71.13
2022-11-13T01:36:21.216Z,71.40
2022-11-13T01:37:41.040Z,71.19
2022-11-13T01:39:01.259Z,71.43
2022-11-13T01:40:21.325Z,71.49
2022-11-13T01:41:41.520Z,71.61
2022-11-13T01:43:11.806Z,71.67
2022-11-13T01:44:47.301Z,71.86
2022-11-13T01:46:08.716Z,71.85
2022-11-13T01:47:28.905Z,71.78
2022-11-13T01:48:53.371Z,71.86
2022-11-13T01:50:14.230Z,71.56
2022-11-13T01:51:35.486Z,71.52
2022-11-13T01:52:55.732Z,71.50
2022-11-13T01:54:17.177Z,71.21
2022-11-13T01:55:37.435Z,71.11
2022-11-13T01:56:57.692Z,71.00
2022-11-13T01:58:17.820Z,70.88
2022-11-13T01:59:38.945Z,70.92
2022-11-13T02:00:59.182Z,70.89
2022-11-13T02:02:19.222Z,70.77
2022-11-13T02:03:39.072Z,70.68
2022-11-13T02:04:59.273Z,70.76
2022-11-13T02:06:19.757Z,70.74
2022-11-13T02:07:39.671Z,70.76
2022-11-13T02:08:59.879Z,70.97
2022-11-13T02:10:19.979Z,70.82
2022-11-13T02:11:40.050Z,71.08
2022-11-13T02:13:00.279Z,70.85
2022-11-13T02:14:20.638Z,71.02
2022-11-13T02:15:40.870Z,71.23
2022-11-13T02:17:01.998Z,71.25
2022-11-13T02:18:22.048Z,71.23
2022-11-13T02:19:45.630Z,71.26
2022-11-13T02:21:09.356Z,71.12
2022-11-13T02:22:32.213Z,71.14
2022-11-13T02:24:11.030Z,71.34
2022-11-13T02:25:30.867Z,71.31
2022-11-13T02:26:51.100Z,71.34
2022-11-13T02:28:11.198Z,71.07
2022-11-13T02:29:31.454Z,71.20
2022-11-13T02:30:51.295Z,71.35
2022-11-13T02:32:11.113Z,71.40
2022-11-13T02:33:31.491Z,71.47
2022-11-13T02:34:51.814Z,71.65
2022-11-13T02:36:12.189Z,71.70
2022-11-13T02:37:32.328Z,71.69
2022-11-13T02:38:52.553Z,71.81
2022-11-13T02:40:12.332Z,71.74
2022-11-13T02:41:32.565Z,71.57
2022-11-13T02:42:52.629Z,71.45
2022-11-13T02:44:12.910Z,71.59
2022-11-13T02:45:33.027Z,71.70
2022-11-13T02:46:53.308Z,71.56
2022-11-13T02:48:13.214Z,71.64
2022-11-13T02:49:33.136Z,71.74
2022-11-13T02:50:53.561Z,71.76
2022-11-13T02:52:13.723Z,71.81
2022-11-13T02:53:34.007Z,71.76
2022-11-13T02:54:54.343Z,71.97
2022-11-13T02:56:14.554Z,71.75
2022-11-13T02:57:34.336Z,71.72
2022-11-13T02:58:54.711Z,71.89
2022-11-13T03:00:15.012Z,71.87
2022-11-13T03:01:35.127Z,71.88
2022-11-13T03:02:55.884Z,72.00
2022-11-13T03:04:15.841Z,72.27
2022-11-13T03:05:35.636Z,72.00
2022-11-13T03:06:55.877Z,72.17
2022-11-13T03:08:16.150Z,72.07
2022-11-13T03:09:36.115Z,72.47
2022-11-13T03:10:56.260Z,72.62
2022-11-13T03:12:16.211Z,72.57
2022-11-13T03:13:36.745Z,72.71
2022-11-13T03:14:56.932Z,72.57
2022-11-13T03:16:16.938Z,72.75
2022-11-13T03:17:37.037Z,72.76
2022-11-13T03:18:57.384Z,72.82
2022-11-13T03:20:17.592Z,72.69
2022-11-13T03:21:37.398Z,72.69
2022-11-13T03:22:57.480Z,72.68
2022-11-13T03:24:18.103Z,72.46
2022-11-13T03:25:38.327Z,72.53
2022-11-13T03:26:58.626Z,72.67
2022-11-13T03:28:18.550Z,72.86
2022-11-13T03:29:38.806Z,72.85
2022-11-13T03:30:58.933Z,72.87
2022-11-13T03:32:18.967Z,72.75
2022-11-13T03:33:39.127Z,72.74
2022-11-13T03:34:59.198Z,72.95
2022-11-13T03:36:19.472Z,73.01
2022-11-13T03:37:39.695Z,72.84
2022-11-13T03:38:59.686Z,72.83
2022-11-13T03:40:19.818Z,72.95
2022-11-13T03:41:39.873Z,72.99
2022-11-13T03:42:59.920Z,72.90
2022-11-13T03:44:20.005Z,73.19
2022-11-13T03:45:40.174Z,73.23
2022-11-13T03:47:00.336Z,73.38
2022-11-13T03:48:20.312Z,73.32
2022-11-13T03:49:40.506Z,72.83
2022-11-13T03:51:00.706Z,72.77
2022-11-13T03:52:20.945Z,72.58
2022-11-13T03:53:40.969Z,72.61
2022-11-13T03:55:00.833Z,72.44
2022-11-13T03:56:20.942Z,72.19
2022-11-13T03:57:41.124Z,72.23
2022-11-13T03:59:01.329Z,72.14
2022-11-13T04:00:21.508Z,72.63
2022-11-13T04:01:41.508Z,72.53
2022-11-13T04:03:01.587Z,72.74
2022-11-13T04:04:21.416Z,72.83
2022-11-13T04:05:42.087Z,72.77
2022-11-13T04:07:02.888Z,72.83
2022-11-13T04:08:22.840Z,72.77
2022-11-13T04:09:43.038Z,72.91
2022-11-13T04:11:06.884Z,72.78
2022-11-13T04:12:26.829Z,72.97
2022-11-13T04:13:46.926Z,73.27
2022-11-13T04:15:07.193Z,73.18
2022-11-13T04:16:30.210Z,73.13
2022-11-13T04:17:50.141Z,73.42
2022-11-13T04:19:10.351Z,73.44
2022-11-13T04:20:30.554Z,73.49
2022-11-13T04:21:50.414Z,73.42
2022-11-13T04:23:12.684Z,73.38
2022-11-13T04:24:32.866Z,73.34
2022-11-13T04:25:53.007Z,73.28
2022-11-13T04:27:12.946Z,72.98
2022-11-13T04:28:33.001Z,72.73
2022-11-13T04:29:52.986Z,72.57
2022-11-13T04:31:13.238Z,72.83
2022-11-13T04:32:33.452Z,72.80
2022-11-13T04:33:53.608Z,72.81
2022-11-13T04:35:13.930Z,72.85
2022-11-13T04:36:33.992Z,72.81
2022-11-13T04:37:54.246Z,73.07
2022-11-13T04:39:14.341Z,73.20
2022-11-13T04:40:34.397Z,73.19
2022-11-13T04:42:13.144Z,73.35
2022-11-13T04:43:33.240Z,73.39
2022-11-13T04:44:53.483Z,73.35
2022-11-13T04:46:13.794Z,73.18
2022-11-13T04:47:33.901Z,73.33
2022-11-13T04:48:53.996Z,72.95
2022-11-13T04:50:14.810Z,72.93
2022-11-13T04:51:34.984Z,72.91
2022-11-13T04:52:55.226Z,73.31
2022-11-13T04:54:15.139Z,73.29
2022-11-13T04:55:39.020Z,73.42
2022-11-13T04:56:59.225Z,73.37
2022-11-13T04:58:19.317Z,73.25
2022-11-13T04:59:39.683Z,73.17
2022-11-13T05:00:59.997Z,73.16
2022-11-13T05:02:20.446Z,73.13
2022-11-13T05:03:40.603Z,73.14
2022-11-13T05:05:04.896Z,72.97
2022-11-13T05:06:25.470Z,72.85
2022-11-13T05:07:45.682Z,72.62
2022-11-13T05:09:05.864Z,72.67
2022-11-13T05:10:25.790Z,72.56
2022-11-13T05:11:46.164Z,72.55
2022-11-13T05:13:06.408Z,72.33
2022-11-13T05:14:26.392Z,72.33
2022-11-13T05:15:46.728Z,72.23
2022-11-13T05:17:06.857Z,72.27
2022-11-13T05:18:27.345Z,72.33
2022-11-13T05:19:47.703Z,72.25
2022-11-13T05:21:07.806Z,72.19
2022-11-13T05:22:27.882Z,72.26
2022-11-13T05:23:47.886Z,72.20
2022-11-13T05:25:08.384Z,72.23
2022-11-13T05:26:28.883Z,72.41
2022-11-13T05:27:48.865Z,72.49
2022-11-13T05:29:08.905Z,72.34
2022-11-13T05:30:28.810Z,72.30
2022-11-13T05:31:49.021Z,72.08
2022-11-13T05:33:09.045Z,72.22
2022-11-13T05:34:28.831Z,72.36
2022-11-13T05:35:48.997Z,72.56
2022-11-13T05:37:09.252Z,72.46
2022-11-13T05:38:30.044Z,72.25
2022-11-13T05:39:50.148Z,72.46
2022-11-13T05:41:15.869Z,72.49
2022-11-13T05:42:36.039Z,72.20
2022-11-13T05:43:59.557Z,72.09
2022-11-13T05:45:20.128Z,72.27
2022-11-13T05:46:40.198Z,72.28
2022-11-13T05:48:00.244Z,72.22
2022-11-13T05:49:20.361Z,72.34
2022-11-13T05:50:40.300Z,72.25
2022-11-13T05:52:00.538Z,72.25
2022-11-13T05:53:20.715Z,72.19
2022-11-13T05:54:40.829Z,71.96
2022-11-13T05:56:01.704Z,72.09
2022-11-13T05:57:21.706Z,72.11
2022-11-13T05:58:41.971Z,72.25
2022-11-13T06:00:01.987Z,72.24
2022-11-13T06:01:22.885Z,72.16
2022-11-13T06:02:42.927Z,72.04
2022-11-13T06:04:03.194Z,71.87
2022-11-13T06:05:23.374Z,71.98
2022-11-13T06:06:43.679Z,71.62
2022-11-13T06:08:03.631Z,71.59
2022-11-13T06:09:23.883Z,71.49
2022-11-13T06:10:44.116Z,71.60
2022-11-13T06:12:04.390Z,71.66
2022-11-13T06:13:24.360Z,71.51
2022-11-13T06:14:44.609Z,71.58
2022-11-13T06:16:05.982Z,71.64
2022-11-13T06:17:25.876Z,71.69
2022-11-13T06:18:46.036Z,71.71
2022-11-13T06:20:06.094Z,71.86
2022-11-13T06:21:27.491Z,71.85
2022-11-13T06:22:47.512Z,71.76
2022-11-13T06:24:08.174Z,71.46
2022-11-13T06:25:28.302Z,71.82
2022-11-13T06:26:48.288Z,71.80
2022-11-13T06:28:08.627Z,71.86
2022-11-13T06:29:28.549Z,71.79
2022-11-13T06:30:48.730Z,71.74
2022-11-13T06:32:08.752Z,71.93
2022-11-13T06:33:28.651Z,71.95
2022-11-13T06:34:48.530Z,72.02
2022-11-13T06:36:10.393Z,71.91
2022-11-13T06:37:34.515Z,71.89
2022-11-13T06:38:54.851Z,71.94
2022-11-13T06:40:15.214Z,72.04
2022-11-13T06:41:35.487Z,71.93
2022-11-13T06:42:55.640Z,71.88
2022-11-13T06:44:15.642Z,71.95
2022-11-13T06:45:35.591Z,72.04
2022-11-13T06:46:55.801Z,72.01
2022-11-13T06:48:16.166Z,71.92
2022-11-13T06:49:36.399Z,71.82
2022-11-13T06:50:59.963Z,71.61
2022-11-13T06:52:20.044Z,71.44
2022-11-13T06:53:40.098Z,71.45
2022-11-13T06:55:01.462Z,71.46
2022-11-13T06:56:21.491Z,71.25
2022-11-13T06:57:41.487Z,71.20
2022-11-13T06:59:04.045Z,71.12
2022-11-13T07:00:32.260Z,71.17
2022-11-13T07:01:55.481Z,71.14
2022-11-13T07:03:16.242Z,71.00
2022-11-13T07:04:36.498Z,70.99
2022-11-13T07:05:56.675Z,71.00
2022-11-13T07:07:16.708Z,70.97
2022-11-13T07:08:37.214Z,71.25
2022-11-13T07:09:57.583Z,71.08
2022-11-13T07:11:18.582Z,71.05
2022-11-13T07:12:38.901Z,71.04
2022-11-13T07:13:58.851Z,71.16
2022-11-13T07:15:19.414Z,71.04
2022-11-13T07:17:07.349Z,70.95
2022-11-13T07:18:23.840Z,70.65
2022-11-13T07:19:44.853Z,70.66
2022-11-13T07:21:06.367Z,70.41
2022-11-13T07:22:27.876Z,70.02
2022-11-13T07:24:16.914Z,69.91
2022-11-13T07:25:37.289Z,69.85
2022-11-13T07:26:57.285Z,69.73
2022-11-13T07:28:17.462Z,69.90
2022-11-13T07:29:39.091Z,69.95
2022-11-13T07:30:59.303Z,69.98
2022-11-13T07:32:19.516Z,69.93
2022-11-13T07:33:39.648Z,70.66
2022-11-13T07:34:59.599Z,70.83
2022-11-13T07:36:19.659Z,70.16
2022-11-13T07:37:39.841Z,70.30
2022-11-13T07:39:00.444Z,69.64
2022-11-13T07:40:20.539Z,69.56
2022-11-13T07:41:40.661Z,68.85
2022-11-13T07:43:01.109Z,68.24
2022-11-13T07:44:47.697Z,67.96
2022-11-13T07:46:01.601Z,67.37
2022-11-13T07:47:21.900Z,66.82
2022-11-13T07:48:42.138Z,67.23
2022-11-13T07:50:07.023Z,67.03
2022-11-13T07:51:30.582Z,67.00
2022-11-13T07:52:54.694Z,66.52
2022-11-13T07:54:14.857Z,66.31
2022-11-13T07:55:35.307Z,66.20
2022-11-13T07:56:55.355Z,65.95
2022-11-13T07:58:15.328Z,65.71
2022-11-13T07:59:35.470Z,65.78
2022-11-13T08:00:55.814Z,65.68
2022-11-13T08:02:16.288Z,66.02
2022-11-13T08:03:36.546Z,66.19
2022-11-13T08:04:56.722Z,66.02
2022-11-13T08:06:16.786Z,66.08
2022-11-13T08:07:36.656Z,65.75
2022-11-13T08:08:56.785Z,65.70
2022-11-13T08:10:16.795Z,65.85
2022-11-13T08:11:37.078Z,65.86
2022-11-13T08:13:00.980Z,65.56
2022-11-13T08:14:20.853Z,65.81
2022-11-13T08:15:40.846Z,66.22
2022-11-13T08:17:01.075Z,66.00
2022-11-13T08:18:21.348Z,66.34
2022-11-13T08:19:41.576Z,66.49
2022-11-13T08:21:02.625Z,66.31
2022-11-13T08:22:22.772Z,66.56
2022-11-13T08:23:42.918Z,65.83
2022-11-13T08:25:02.962Z,65.38
2022-11-13T08:26:23.187Z,65.43
2022-11-13T08:27:43.234Z,65.37
2022-11-13T08:29:03.164Z,63.92
2022-11-13T08:30:23.517Z,63.53
2022-11-13T08:31:43.334Z,63.22
2022-11-13T08:33:03.459Z,63.73
2022-11-13T08:34:23.308Z,63.27
2022-11-13T08:35:43.400Z,62.81
2022-11-13T08:37:03.439Z,62.61
2022-11-13T08:38:23.702Z,61.67
2022-11-13T08:39:43.843Z,61.09
2022-11-13T08:41:09.012Z,61.22
2022-11-13T08:42:29.825Z,60.52
2022-11-13T08:43:50.062Z,59.98
2022-11-13T08:45:10.454Z,59.19
2022-11-13T08:46:30.479Z,59.31
2022-11-13T08:47:50.542Z,58.41
2022-11-13T08:49:12.064Z,57.60
2022-11-13T08:50:32.464Z,58.38
2022-11-13T08:51:52.339Z,57.36
2022-11-13T08:53:12.320Z,57.66
2022-11-13T08:54:32.646Z,57.49
2022-11-13T08:55:52.806Z,57.07
2022-11-13T08:57:13.174Z,56.19
2022-11-13T08:58:33.165Z,56.00
2022-11-13T08:59:53.371Z,55.85
2022-11-13T09:01:13.541Z,55.22
2022-11-13T09:02:33.649Z,55.39
2022-11-13T09:03:53.724Z,54.56
2022-11-13T09:05:14.241Z,52.92
2022-11-13T09:06:34.162Z,52.99
2022-11-13T09:07:58.220Z,53.03
2022-11-13T09:09:18.399Z,52.50
2022-11-13T09:10:38.385Z,52.71
2022-11-13T09:11:58.645Z,51.64
2022-11-13T09:13:18.890Z,51.19
2022-11-13T09:14:39.110Z,50.58
2022-11-13T09:15:59.834Z,50.08
2022-11-13T09:17:20.049Z,49.78
2022-11-13T09:18:40.079Z,49.88
2022-11-13T09:20:04.022Z,49.28
2022-11-13T09:21:24.966Z,49.57
2022-11-13T09:22:45.148Z,49.39
2022-11-13T09:24:06.436Z,48.88
2022-11-13T09:25:26.474Z,48.52
2022-11-13T09:26:46.383Z,48.18
2022-11-13T09:28:06.530Z,47.92
2022-11-13T09:29:28.518Z,48.03
2022-11-13T09:30:48.604Z,47.71
2022-11-13T09:32:08.591Z,47.92
2022-11-13T09:33:28.744Z,47.71
2022-11-13T09:34:48.821Z,46.88
2022-11-13T09:36:12.144Z,46.36
2022-11-13T09:37:32.647Z,46.87
2022-11-13T09:38:52.486Z,47.12
2022-11-13T09:40:14.908Z,46.82
2022-11-13T09:41:42.106Z,46.86
2022-11-13T09:43:02.855Z,46.39
2022-11-13T09:44:39.140Z,46.21
2022-11-13T09:46:06.280Z,45.85
2022-11-13T09:47:26.233Z,45.02
2022-11-13T09:48:51.056Z,45.39
2022-11-13T09:50:18.084Z,45.70
2022-11-13T09:51:38.530Z,44.76
2022-11-13T09:52:58.474Z,45.12
2022-11-13T09:54:18.427Z,44.65
2022-11-13T09:55:40.441Z,44.32
2022-11-13T09:57:04.964Z,44.29
2022-11-13T09:58:31.067Z,44.00
2022-11-13T09:59:57.195Z,44.23
2022-11-13T10:01:25.715Z,44.38
2022-11-13T10:02:51.831Z,43.89
2022-11-13T10:04:14.371Z,43.29
2022-11-13T10:05:53.646Z,43.19
2022-11-13T10:07:25.478Z,43.26
2022-11-13T10:08:45.304Z,43.41
2022-11-13T10:10:13.922Z,42.98
2022-11-13T10:11:37.962Z,42.42
2022-11-13T10:12:58.517Z,42.53
2022-11-13T10:14:23.686Z,42.00
2022-11-13T10:15:43.850Z,42.01
2022-11-13T10:17:08.544Z,41.90
2022-11-13T10:18:33.574Z,41.79
2022-11-13T10:19:58.341Z,41.93
2022-11-13T10:21:21.646Z,41.64
2022-11-13T10:22:43.018Z,41.82
2022-11-13T10:24:04.641Z,41.91
2022-11-13T10:25:32.246Z,42.09
2022-11-13T10:26:53.527Z,40.97
2022-11-13T10:28:50.154Z,40.95
2022-11-13T10:30:00.954Z,40.35
2022-11-13T10:31:21.047Z,39.66
2022-11-13T10:32:41.361Z,39.72
2022-11-13T10:34:01.462Z,39.91
2022-11-13T10:35:21.535Z,40.42
2022-11-13T10:36:49.663Z,39.95
2022-11-13T10:38:15.157Z,40.36
2022-11-13T10:39:41.877Z,40.89
2022-11-13T10:41:28.146Z,40.25
2022-11-13T10:42:48.126Z,39.96
2022-11-13T10:44:18.367Z,40.05
2022-11-13T10:45:38.212Z,40.06
2022-11-13T10:47:56.790Z,40.13
2022-11-13T10:49:31.395Z,39.88
2022-11-13T10:51:14.167Z,39.64
2022-11-13T10:52:34.787Z,39.65
2022-11-13T10:53:54.818Z,38.99
2022-11-13T10:55:22.773Z,39.43
2022-11-13T10:56:42.798Z,39.51
2022-11-13T10:58:03.901Z,39.43
2022-11-13T10:59:25.422Z,39.72
2022-11-13T11:00:48.979Z,40.23
2022-11-13T11:02:12.111Z,40.39
2022-11-13T11:03:32.043Z,40.84
2022-11-13T11:05:01.922Z,40.64
2022-11-13T11:06:56.433Z,40.83
2022-11-13T11:08:11.038Z,40.40
2022-11-13T11:09:31.795Z,41.13
2022-11-13T11:11:20.107Z,41.09
2022-11-13T11:12:40.137Z,41.94
2022-11-13T11:14:19.002Z,42.36
2022-11-13T11:15:41.357Z,42.27
2022-11-13T11:17:01.383Z,42.65
2022-11-13T11:18:25.512Z,43.22
2022-11-13T11:19:47.015Z,43.24
2022-11-13T11:21:08.671Z,43.18
2022-11-13T11:22:29.941Z,43.41
2022-11-13T11:23:56.470Z,43.01
2022-11-13T11:25:36.411Z,42.81
2022-11-13T11:27:05.257Z,43.64
2022-11-13T11:28:27.942Z,44.09
2022-11-13T11:29:49.270Z,44.25
2022-11-13T11:31:11.381Z,44.00
2022-11-13T11:32:31.419Z,44.15
2022-11-13T11:33:53.345Z,43.83
2022-11-13T11:35:24.488Z,44.51
2022-11-13T11:37:02.995Z,44.49
2022-11-13T11:38:27.095Z,45.10
2022-11-13T11:39:49.338Z,45.21
2022-11-13T11:41:16.246Z,45.25
2022-11-13T11:42:47.734Z,45.60
2022-11-13T11:44:34.023Z,45.66
2022-11-13T11:45:54.213Z,45.89
2022-11-13T11:47:14.845Z,45.66
2022-11-13T11:48:34.770Z,46.07
2022-11-13T11:49:54.785Z,46.16
2022-11-13T11:51:27.076Z,46.14
2022-11-13T11:52:52.693Z,45.88
2022-11-13T11:54:21.001Z,46.37
2022-11-13T11:55:40.823Z,46.21
2022-11-13T11:57:05.671Z,45.89
2022-11-13T11:58:32.068Z,45.45
2022-11-13T12:00:01.839Z,45.71
2022-11-13T12:01:30.977Z,45.43
2022-11-13T12:02:53.732Z,44.00
2022-11-13T12:04:22.663Z,43.42
2022-11-13T12:05:50.122Z,42.87
2022-11-13T12:07:28.975Z,43.41
2022-11-13T12:08:55.236Z,43.73
2022-11-13T12:10:20.928Z,44.10
2022-11-13T12:11:47.585Z,43.87
2022-11-13T12:13:16.669Z,43.50
2022-11-13T12:14:36.475Z,43.70
2022-11-13T12:16:12.010Z,43.79
2022-11-13T12:17:44.035Z,44.21
2022-11-13T12:19:23.288Z,44.45
2022-11-13T12:20:49.589Z,44.37
2022-11-13T12:22:21.733Z,44.36
2022-11-13T12:24:01.667Z,44.32
2022-11-13T12:25:26.575Z,43.97
2022-11-13T12:26:48.300Z,44.51
2022-11-13T12:28:14.354Z,44.42
2022-11-13T12:29:49.510Z,44.77
2022-11-13T12:31:28.287Z,44.58
2022-11-13T12:33:03.700Z,44.05
2022-11-13T12:34:23.517Z,44.48
2022-11-13T12:35:44.909Z,44.71
2022-11-13T12:37:12.217Z,44.81
2022-11-13T12:38:32.350Z,45.15
2022-11-13T12:40:00.418Z,45.18
2022-11-13T12:41:23.289Z,43.98
2022-11-13T12:42:46.145Z,44.05
2022-11-13T12:44:24.929Z,43.91
2022-11-13T12:45:52.199Z,43.73
2022-11-13T12:47:12.285Z,43.59
2022-11-13T12:48:33.756Z,43.92
2022-11-13T12:50:00.749Z,44.55
2022-11-13T12:51:21.031Z,44.80
2022-11-13T12:52:40.949Z,45.14
2022-11-13T12:54:00.729Z,45.16
2022-11-13T12:55:27.487Z,45.10
2022-11-13T12:56:48.177Z,45.08
2022-11-13T12:58:17.737Z,45.29
2022-11-13T12:59:39.304Z,45.39
2022-11-13T13:01:03.676Z,45.51
2022-11-13T13:02:26.761Z,45.47
2022-11-13T13:03:57.005Z,45.10
2022-11-13T13:05:21.606Z,45.51
2022-11-13T13:07:00.477Z,45.70
2022-11-13T13:08:26.494Z,45.53
2022-11-13T13:10:10.050Z,45.39
2022-11-13T13:11:42.439Z,45.46
2022-11-13T13:13:09.109Z,45.10
2022-11-13T13:14:33.337Z,44.85
2022-11-13T13:15:54.213Z,45.40
2022-11-13T13:17:14.455Z,45.36
2022-11-13T13:18:35.539Z,45.20
2022-11-13T13:20:04.119Z,44.79
2022-11-13T13:21:24.067Z,44.69
2022-11-13T13:22:54.322Z,44.34
2022-11-13T13:24:33.444Z,44.27
2022-11-13T13:26:01.580Z,44.53
2022-11-13T13:27:22.484Z,44.13
2022-11-13T13:28:43.572Z,44.42
2022-11-13T13:30:20.128Z,44.49
2022-11-13T13:31:49.474Z,44.38
2022-11-13T13:33:12.506Z,44.56
2022-11-13T13:34:47.491Z,44.83
2022-11-13T13:36:10.434Z,43.86
2022-11-13T13:37:43.173Z,43.24
2022-11-13T13:39:22.052Z,43.50
2022-11-13T13:40:51.041Z,43.63
2022-11-13T13:42:17.293Z,43.92
2022-11-13T13:43:41.770Z,43.93
2022-11-13T13:45:01.761Z,44.31
2022-11-13T13:46:22.641Z,44.22
2022-11-13T13:47:43.861Z,44.26
2022-11-13T13:49:14.588Z,44.13
2022-11-13T13:50:36.774Z,44.16
2022-11-13T13:51:56.967Z,43.84
2022-11-13T13:53:22.795Z,43.88
2022-11-13T13:54:43.131Z,43.98
2022-11-13T13:56:03.065Z,44.28
2022-11-13T13:57:23.104Z,44.13
2022-11-13T13:58:43.343Z,44.11
2022-11-13T14:00:03.739Z,44.19
2022-11-13T14:01:30.844Z,44.30
2022-11-13T14:02:51.580Z,44.35
2022-11-13T14:04:15.066Z,44.34
2022-11-13T14:05:35.625Z,44.05
2022-11-13T14:06:56.732Z,44.05
2022-11-13T14:08:20.372Z,44.23
2022-11-13T14:09:40.586Z,44.23
2022-11-13T14:11:03.174Z,44.23
2022-11-13T14:12:23.391Z,44.41
2022-11-13T14:13:43.408Z,44.48
2022-11-13T14:15:04.112Z,44.61
2022-11-13T14:16:24.350Z,44.33
2022-11-13T14:17:44.816Z,44.43
2022-11-13T14:19:05.262Z,44.63
2022-11-13T14:20:25.431Z,44.67
2022-11-13T14:21:46.001Z,44.63
2022-11-13T14:23:05.895Z,44.70
2022-11-13T14:24:27.336Z,44.81
2022-11-13T14:25:47.411Z,44.87
2022-11-13T14:27:08.076Z,44.88
2022-11-13T14:28:28.610Z,44.96
2022-11-13T14:29:49.418Z,45.08
2022-11-13T14:31:10.829Z,45.03
2022-11-13T14:32:32.182Z,45.15
2022-11-13T14:33:52.100Z,44.96
2022-11-13T14:35:19.637Z,45.04
2022-11-13T14:36:40.818Z,44.93
2022-11-13T14:38:01.018Z,45.01
2022-11-13T14:39:25.267Z,45.18
2022-11-13T14:40:46.659Z,45.18
2022-11-13T14:42:06.882Z,45.06
2022-11-13T14:43:28.309Z,45.26
2022-11-13T14:44:48.726Z,45.45
2022-11-13T14:46:28.910Z,45.44
2022-11-13T14:47:58.778Z,45.63
2022-11-13T14:49:27.886Z,45.77
2022-11-13T14:50:51.288Z,45.63
2022-11-13T14:52:19.970Z,45.72
2022-11-13T14:53:40.079Z,45.57
2022-11-13T14:55:14.767Z,45.54
2022-11-13T14:56:37.037Z,45.55
2022-11-13T14:57:57.094Z,45.20
2022-11-13T14:59:24.326Z,44.89
2022-11-13T15:00:44.175Z,44.60
2022-11-13T15:02:04.421Z,44.77
2022-11-13T15:03:24.876Z,44.78
2022-11-13T15:04:45.075Z,44.96
2022-11-13T15:06:05.906Z,44.82
2022-11-13T15:07:28.655Z,44.79
2022-11-13T15:08:49.451Z,44.70
2022-11-13T15:10:11.529Z,44.79
2022-11-13T15:11:32.075Z,44.77
2022-11-13T15:12:52.430Z,44.80
2022-11-13T15:14:12.766Z,44.73
2022-11-13T15:15:32.685Z,44.98
2022-11-13T15:16:52.800Z,44.83
2022-11-13T15:18:14.410Z,44.86
2022-11-13T15:19:34.831Z,45.02
2022-11-13T15:20:54.944Z,45.06
2022-11-13T15:22:30.529Z,45.23
2022-11-13T15:23:50.469Z,45.53
2022-11-13T15:25:16.950Z,45.38
2022-11-13T15:26:36.691Z,45.45
2022-11-13T15:27:56.803Z,45.59
2022-11-13T15:29:17.083Z,45.77
2022-11-13T15:30:37.073Z,45.80
2022-11-13T15:31:57.733Z,46.10
2022-11-13T15:33:17.883Z,46.33
2022-11-13T15:34:38.150Z,46.41
2022-11-13T15:35:58.231Z,46.60
2022-11-13T15:37:18.223Z,46.51
2022-11-13T15:38:38.490Z,46.64
2022-11-13T15:39:58.414Z,46.96
2022-11-13T15:41:19.431Z,46.89
2022-11-13T15:42:39.275Z,47.14
2022-11-13T15:43:59.583Z,47.29
2022-11-13T15:45:19.574Z,47.48
2022-11-13T15:46:39.750Z,47.35
2022-11-13T15:47:59.831Z,47.34
2022-11-13T15:49:19.761Z,47.58
2022-11-13T15:50:39.607Z,47.32
2022-11-13T15:51:59.754Z,47.27
2022-11-13T15:53:19.990Z,47.61
2022-11-13T15:54:40.183Z,47.75
2022-11-13T15:56:03.130Z,47.75
2022-11-13T15:57:24.057Z,48.04
2022-11-13T15:58:44.247Z,48.00
2022-11-13T16:00:04.324Z,48.00
2022-11-13T16:01:24.551Z,47.94
2022-11-13T16:02:50.341Z,47.92
2022-11-13T16:04:12.951Z,48.11
2022-11-13T16:05:33.107Z,48.44
2022-11-13T16:06:53.512Z,48.40
2022-11-13T16:08:13.846Z,48.27
2022-11-13T16:09:33.830Z,48.39
2022-11-13T16:10:55.043Z,48.54
2022-11-13T16:12:15.187Z,48.65
2022-11-13T16:13:35.376Z,48.62
2022-11-13T16:14:55.634Z,48.84
2022-11-13T16:16:20.203Z,48.77
2022-11-13T16:17:40.853Z,48.89
2022-11-13T16:19:01.659Z,48.97
2022-11-13T16:20:21.609Z,48.92
2022-11-13T16:21:41.820Z,48.94
2022-11-13T16:23:01.774Z,49.12
2022-11-13T16:24:24.285Z,49.28
2022-11-13T16:25:44.932Z,49.57
2022-11-13T16:27:05.029Z,49.58
2022-11-13T16:28:25.324Z,49.75
2022-11-13T16:29:45.619Z,49.96
2022-11-13T16:31:05.919Z,50.13
2022-11-13T16:32:26.103Z,50.39
2022-11-13T16:33:46.187Z,50.28
2022-11-13T16:35:06.514Z,50.24
2022-11-13T16:36:27.630Z,50.23
2022-11-13T16:37:47.983Z,50.31
2022-11-13T16:39:15.247Z,50.43
2022-11-13T16:40:35.739Z,50.55
2022-11-13T16:41:55.841Z,50.55
2022-11-13T16:43:16.766Z,50.51
2022-11-13T16:44:37.027Z,50.63
2022-11-13T16:45:58.634Z,50.72
2022-11-13T16:47:22.504Z,50.79
2022-11-13T16:48:42.596Z,50.75
2022-11-13T16:50:02.830Z,51.04
2022-11-13T16:51:23.231Z,51.16
2022-11-13T16:52:43.390Z,50.94
2022-11-13T16:54:03.755Z,51.12
2022-11-13T16:55:24.174Z,51.15
2022-11-13T16:56:45.155Z,51.18
2022-11-13T16:58:05.373Z,51.46
2022-11-13T16:59:25.805Z,51.47
2022-11-13T17:00:45.819Z,51.74
2022-11-13T17:02:15.698Z,51.77
2022-11-13T17:03:35.847Z,51.87
2022-11-13T17:04:56.208Z,51.91
2022-11-13T17:06:16.504Z,51.68
2022-11-13T17:07:36.897Z,51.64
2022-11-13T17:08:58.529Z,51.73
2022-11-13T17:10:34.753Z,51.98
2022-11-13T17:11:55.195Z,51.94
2022-11-13T17:13:15.367Z,52.13
2022-11-13T17:14:35.762Z,52.33
2022-11-13T17:15:55.670Z,52.31
2022-11-13T17:17:15.712Z,52.38
2022-11-13T17:18:35.867Z,52.38
2022-11-13T17:19:56.042Z,52.41
2022-11-13T17:21:16.406Z,52.37
2022-11-13T17:22:36.433Z,52.54
2022-11-13T17:23:57.282Z,52.63
2022-11-13T17:25:17.440Z,52.89
2022-11-13T17:26:37.521Z,52.51
2022-11-13T17:27:57.642Z,52.81
2022-11-13T17:29:17.379Z,52.92
2022-11-13T17:30:37.377Z,53.19
2022-11-13T17:31:57.793Z,53.17
2022-11-13T17:33:17.786Z,53.21
2022-11-13T17:34:38.055Z,53.18
2022-11-13T17:35:58.204Z,53.14
2022-11-13T17:37:21.590Z,53.28
2022-11-13T17:38:44.385Z,53.46
2022-11-13T17:40:04.854Z,53.48